Jeanie G — WDB2354 — position and weather

sailwx.info

Track history (hours):
 
Tides and Currents Weather Stations Pressure Air Temp Water Temp Dewpoint Dewpoint Depression Visibility Wind Speed Wind Dir Waves Ship Positions

Jeanie G

More information available from US FCC via Universal Licensing System and Coast Guard Vessel Documentation Center.

Last reported at 2014-Sep-18 04:33 UTC. Time now 2014-Sep-18 05:42 UTC.
Position N 29°57' W 090°23'.

MMSI: 366875010.

Date/timePositionNaut miles runAvg speedWind from/ knotsBaromVisibWave heightAir tempDewpointWater temp
2014-Sep-18 04:33N 29°57' W 090°23'  
2014-Sep-14 01:27N 29°32' W 090°50'16 4.1
2014-Sep-13 21:34N 29°40' W 091°06'0 0.0
2014-Sep-13 20:34N 29°40' W 091°06'0 0.0
2014-Sep-13 19:33N 29°40' W 091°06'0 0.0
2014-Sep-13 18:33N 29°40' W 091°06'0 0.0
2014-Sep-13 17:33N 29°40' W 091°06'0 0.0
2014-Sep-13 16:33N 29°40' W 091°06'0 0.0
2014-Sep-13 15:33N 29°40' W 091°06'0 0.0
2014-Sep-13 14:33N 29°40' W 091°06'1 0.8
2014-Sep-13 13:33N 29°39' W 091°06'3 3.0
2014-Sep-13 12:33N 29°41' W 091°09'4 3.6
2014-Sep-13 11:33N 29°41' W 091°13'1 1.5
2014-Sep-13 10:33N 29°40' W 091°14'0 0.0
2014-Sep-13 09:34N 29°40' W 091°14'0 0.0
2014-Sep-13 08:34N 29°40' W 091°14'0 0.0
2014-Sep-13 07:33N 29°40' W 091°14'0 0.0
2014-Sep-13 06:33N 29°40' W 091°14'3 2.5
2014-Sep-13 05:33N 29°41' W 091°12'3 2.7
2014-Sep-13 04:33N 29°41' W 091°09'3 3.1
2014-Sep-13 03:33N 29°39' W 091°06'3 3.0
2014-Sep-13 02:33N 29°37' W 091°03'3 3.3
2014-Sep-13 01:33N 29°37' W 090°59'4 3.6
2014-Sep-13 00:34N 29°34' W 090°57'5 3.8
2014-Sep-12 23:13N 29°32' W 090°51'2 3.6
2014-Sep-12 22:32N 29°32' W 090°48'3 3.3
2014-Sep-12 21:30N 29°34' W 090°45'  
Track history (hours):
 
Tides and Currents Weather Stations Pressure Air Temp Water Temp Dewpoint Dewpoint Depression Visibility Wind Speed Wind Dir Waves Ship Positions

Jeanie G

More information available from US FCC via Universal Licensing System and Coast Guard Vessel Documentation Center.

Last reported at 2014-Sep-18 04:33 UTC. Time now 2014-Sep-18 05:42 UTC.
Position N 29°57' W 090°23'.

MMSI: 366875010.

Date/timePositionNaut miles runAvg speedWind from/ knotsBaromVisibWave heightAir tempDewpointWater temp
2014-Sep-18 04:33N 29°57' W 090°23'  
2014-Sep-14 01:27N 29°32' W 090°50'16 4.1
2014-Sep-13 21:34N 29°40' W 091°06'0 0.0
2014-Sep-13 20:34N 29°40' W 091°06'0 0.0
2014-Sep-13 19:33N 29°40' W 091°06'0 0.0
2014-Sep-13 18:33N 29°40' W 091°06'0 0.0
2014-Sep-13 17:33N 29°40' W 091°06'0 0.0
2014-Sep-13 16:33N 29°40' W 091°06'0 0.0
2014-Sep-13 15:33N 29°40' W 091°06'0 0.0
2014-Sep-13 14:33N 29°40' W 091°06'1 0.8
2014-Sep-13 13:33N 29°39' W 091°06'3 3.0
2014-Sep-13 12:33N 29°41' W 091°09'4 3.6
2014-Sep-13 11:33N 29°41' W 091°13'1 1.5
2014-Sep-13 10:33N 29°40' W 091°14'0 0.0
2014-Sep-13 09:34N 29°40' W 091°14'0 0.0
2014-Sep-13 08:34N 29°40' W 091°14'0 0.0
2014-Sep-13 07:33N 29°40' W 091°14'0 0.0
2014-Sep-13 06:33N 29°40' W 091°14'3 2.5
2014-Sep-13 05:33N 29°41' W 091°12'3 2.7
2014-Sep-13 04:33N 29°41' W 091°09'3 3.1
2014-Sep-13 03:33N 29°39' W 091°06'3 3.0
2014-Sep-13 02:33N 29°37' W 091°03'3 3.3
2014-Sep-13 01:33N 29°37' W 090°59'4 3.6
2014-Sep-13 00:34N 29°34' W 090°57'5 3.8
2014-Sep-12 23:13N 29°32' W 090°51'2 3.6
2014-Sep-12 22:32N 29°32' W 090°48'3 3.3
2014-Sep-12 21:30N 29°34' W 090°45'  

Dump ship's entire track history